Time;durP1;ratioP1;P1;durP2;ratioP2;P2;SDS_P1;SDS_P2;PMS_P1;PMS_P2;Temp;Humidity;BMP_temperature;BMP_pressure;BME280_temperature;BME280_humidity;BME280_pressure;Samples;Min_cycle;Max_cycle;Signal;HPM_P1;HPM_P2
2021/04/29 00:00:19;;;;;;;7.87;7.07;;;;;;;14.50;56.97;97466.44;5173073;27;42278;-73
2021/04/29 00:02:47;;;;;;;5.60;4.93;;;;;;;14.46;57.52;97469.59;5172184;27;42728;-73
2021/04/29 00:05:16;;;;;;;6.67;6.07;;;;;;;14.39;57.69;97479.97;5172800;27;42433;-73
2021/04/29 00:07:44;;;;;;;6.37;5.60;;;;;;;14.34;58.01;97477.75;5171603;27;40719;-73
2021/04/29 00:10:15;;;;;;;6.17;5.57;;;;;;;14.28;58.85;97472.22;5173751;27;41589;-74
2021/04/29 00:12:42;;;;;;;7.33;6.50;;;;;;;14.20;58.99;97469.50;5172183;27;42430;-73
2021/04/29 00:15:12;;;;;;;7.33;6.50;;;;;;;14.10;59.66;97458.06;5172922;27;42244;-74
2021/04/29 00:17:39;;;;;;;7.73;6.83;;;;;;;14.06;60.18;97462.03;5171992;27;40905;-74
2021/04/29 00:20:08;;;;;;;8.00;6.77;;;;;;;13.88;62.36;97438.91;5171949;27;41771;-73
2021/04/29 00:22:35;;;;;;;7.37;6.67;;;;;;;13.91;62.08;97465.22;5172013;27;42434;-73
2021/04/29 00:25:03;;;;;;;6.60;6.00;;;;;;;13.88;61.87;97464.66;5170575;27;42947;-74
2021/04/29 00:27:31;;;;;;;7.17;6.43;;;;;;;13.79;61.57;97463.75;5171432;27;39987;-73
2021/04/29 00:29:58;;;;;;;6.93;6.33;;;;;;;13.86;61.23;97469.28;5170623;27;42228;-74
2021/04/29 00:32:26;;;;;;;6.93;6.33;;;;;;;13.84;61.56;97479.28;5170395;27;43304;-73
2021/04/29 00:34:53;;;;;;;9.27;8.33;;;;;;;13.79;62.47;97461.09;5172441;27;42388;-73
2021/04/29 00:37:20;;;;;;;7.57;6.83;;;;;;;13.71;62.66;97458.34;5170444;27;40643;-73
2021/04/29 00:39:47;;;;;;;7.90;7.20;;;;;;;13.74;62.57;97463.34;5172212;27;41468;-74
2021/04/29 00:42:16;;;;;;;7.90;7.20;;;;;;;13.73;62.76;97461.69;5170794;27;43080;-74
2021/04/29 00:44:43;;;;;;;6.43;5.83;;;;;;;13.72;62.86;97454.72;5172060;27;42155;-74
2021/04/29 00:47:10;;;;;;;7.87;7.13;;;;;;;13.71;62.59;97463.69;5154544;27;39649;-74
2021/04/29 00:49:37;;;;;;;7.53;6.57;;;;;;;13.71;63.61;97465.50;5172089;27;41781;-74
2021/04/29 00:52:05;;;;;;;7.90;7.13;;;;;;;13.68;63.61;97458.66;5171213;27;42726;-74
2021/04/29 00:54:32;;;;;;;8.20;6.57;;;;;;;13.63;63.58;97461.75;5170394;27;42333;-75
2021/04/29 00:56:59;;;;;;;7.13;6.43;;;;;;;13.61;64.00;97462.88;5172473;27;40645;-75
2021/04/29 00:59:27;;;;;;;8.00;7.20;;;;;;;13.58;63.97;97458.72;5170434;27;41802;-74
2021/04/29 01:02:03;;;;;;;8.67;7.40;;;;;;;13.56;63.77;97470.47;5170688;27;42442;-74
2021/04/29 01:04:36;;;;;;;6.93;6.00;;;;;;;13.53;64.02;97466.28;5171914;27;42047;-74
2021/04/29 01:07:06;;;;;;;9.93;8.93;;;;;;;13.48;64.79;97449.09;5170446;27;38729;-74
2021/04/29 01:09:40;;;;;;;8.47;7.73;;;;;;;13.51;64.47;97456.78;5171133;27;41754;-74
2021/04/29 01:12:12;;;;;;;9.20;8.40;;;;;;;13.49;64.84;97461.41;5171396;27;42704;-74
2021/04/29 01:14:41;;;;;;;9.27;8.37;;;;;;;13.47;64.71;97463.41;5171800;27;42347;-74
2021/04/29 01:17:11;;;;;;;9.57;8.67;;;;;;;13.46;64.85;97464.38;5171908;27;40353;-74
2021/04/29 01:19:44;;;;;;;8.73;8.00;;;;;;;13.47;65.22;97460.72;5170930;27;42483;-74
2021/04/29 01:22:12;;;;;;;9.50;8.60;;;;;;;13.44;64.88;97466.34;5171299;27;43419;-74
2021/04/29 01:24:50;;;;;;;10.83;9.73;;;;;;;13.46;65.94;97453.75;5171372;27;42414;-74
2021/04/29 01:27:20;;;;;;;11.77;9.87;;;;;;;13.45;67.11;97460.03;5170657;27;40566;-74
2021/04/29 01:29:47;;;;;;;10.57;9.43;;;;;;;13.42;66.85;97458.50;5171885;27;42092;-74
2021/04/29 01:32:15;;;;;;;15.27;13.50;;;;;;;13.33;66.99;97445.25;5170922;27;43652;-74
2021/04/29 01:34:44;;;;;;;10.80;9.70;;;;;;;13.37;67.15;97460.75;5169523;27;41441;-74
2021/04/29 01:37:11;;;;;;;13.80;11.47;;;;;;;13.35;67.42;97467.22;5169211;27;40687;-74
2021/04/29 01:39:40;;;;;;;9.57;8.63;;;;;;;13.34;67.67;97468.22;5169336;27;41239;-75
2021/04/29 01:42:07;;;;;;;13.77;12.30;;;;;;;13.26;67.97;97464.44;5170075;27;43410;-74
2021/04/29 01:44:37;;;;;;;14.17;12.27;;;;;;;13.24;68.50;97474.38;5169294;27;42224;-74
2021/04/29 01:47:04;;;;;;;12.87;11.67;;;;;;;13.21;68.79;97474.69;5170806;27;40344;-74
2021/04/29 01:49:31;;;;;;;13.80;12.43;;;;;;;13.18;70.06;97476.81;5169748;27;41131;-74
2021/04/29 01:52:00;;;;;;;13.53;12.13;;;;;;;13.12;70.28;97488.81;5169446;27;42464;-74
2021/04/29 01:54:27;;;;;;;15.47;14.00;;;;;;;13.08;70.87;97479.47;5170854;27;41849;-74
2021/04/29 01:56:54;;;;;;;16.57;13.20;;;;;;;13.06;70.81;97486.75;5171706;27;39554;-74
2021/04/29 01:59:25;;;;;;;17.20;15.50;;;;;;;13.03;71.60;97489.69;5170531;27;41454;-74
2021/04/29 02:01:53;;;;;;;14.70;13.20;;;;;;;13.01;72.50;97494.31;5169046;27;42380;-74
2021/04/29 02:04:20;;;;;;;16.73;13.20;;;;;;;12.96;71.98;97504.53;5170787;27;42261;-74
2021/04/29 02:06:48;;;;;;;13.60;12.23;;;;;;;12.95;71.97;97498.38;5168447;27;40073;-74
2021/04/29 02:09:15;;;;;;;13.10;11.57;;;;;;;12.98;71.24;97502.59;5170462;27;41744;-74
2021/04/29 02:11:49;;;;;;;12.80;11.50;;;;;;;12.99;71.81;97500.72;5169535;27;41906;-74
2021/04/29 02:14:24;;;;;;;15.27;13.77;;;;;;;12.93;71.65;97494.19;5169485;27;42151;-74
2021/04/29 02:16:56;;;;;;;13.17;11.83;;;;;;;12.94;72.20;97490.56;5170595;27;40483;-74
2021/04/29 02:19:25;;;;;;;13.27;11.97;;;;;;;12.87;72.15;97498.25;5170328;27;42454;-74
2021/04/29 02:21:52;;;;;;;16.97;15.23;;;;;;;12.84;72.13;97495.06;5168957;27;42523;-75
2021/04/29 02:24:21;;;;;;;13.70;12.37;;;;;;;12.90;72.46;97499.78;5170479;27;42008;-74
2021/04/29 02:26:50;;;;;;;17.13;15.43;;;;;;;12.86;72.72;97498.38;5169596;27;39577;-73
2021/04/29 02:29:19;;;;;;;13.83;12.30;;;;;;;12.82;72.79;97489.06;5151493;27;40826;-74
2021/04/29 02:31:46;;;;;;;12.17;10.97;;;;;;;12.88;72.38;97502.59;5169464;27;42408;-75
2021/04/29 02:34:15;;;;;;;13.63;11.97;;;;;;;12.80;71.94;97478.56;5170000;27;42600;-74
2021/04/29 02:36:42;;;;;;;13.00;11.53;;;;;;;12.91;72.32;97501.47;5169882;27;40801;-74
2021/04/29 02:39:10;;;;;;;16.10;14.50;;;;;;;12.90;72.64;97505.94;5169570;27;41389;-74
2021/04/29 02:41:41;;;;;;;13.97;12.53;;;;;;;12.88;72.48;97507.06;5168937;27;43311;-74
2021/04/29 02:44:09;;;;;;;18.33;14.80;;;;;;;12.91;72.28;97501.47;5170493;27;42208;-73
2021/04/29 02:46:41;;;;;;;18.40;16.60;;;;;;;12.88;72.31;97507.06;5168584;27;39960;-74
2021/04/29 02:49:11;;;;;;;13.33;11.93;;;;;;;12.86;72.14;97509.84;5170405;27;42618;-73
2021/04/29 02:51:39;;;;;;;13.07;11.77;;;;;;;12.88;72.15;97507.06;5172840;27;43505;-73
2021/04/29 02:54:08;;;;;;;11.40;10.30;;;;;;;12.91;71.78;97517.41;5173728;27;41244;-73
2021/04/29 02:56:40;;;;;;;13.70;12.37;;;;;;;12.92;72.28;97509.28;5173771;27;39801;-74
2021/04/29 02:59:13;;;;;;;13.80;11.97;;;;;;;12.92;71.67;97505.81;5173994;27;41776;-73
2021/04/29 03:01:42;;;;;;;12.70;11.43;;;;;;;12.96;71.67;97520.47;5173134;27;42482;-73
2021/04/29 03:04:09;;;;;;;12.17;10.97;;;;;;;13.00;71.19;97513.88;5174007;27;42246;-73
2021/04/29 03:06:36;;;;;;;17.97;16.17;;;;;;;12.99;71.00;97509.53;5173507;27;40718;-74
2021/04/29 03:09:06;;;;;;;15.40;13.90;;;;;;;13.01;71.10;97520.88;5173716;27;41854;-73
2021/04/29 03:11:35;;;;;;;13.77;12.43;;;;;;;13.01;71.16;97515.56;5171923;27;41484;-74
2021/04/29 03:14:02;;;;;;;15.37;11.87;;;;;;;13.04;71.30;97511.78;5173640;27;42753;-73
2021/04/29 03:16:29;;;;;;;12.83;11.63;;;;;;;13.04;71.77;97528.56;5174010;27;39890;-74
2021/04/29 03:18:57;;;;;;;14.00;12.70;;;;;;;13.04;71.38;97528.56;5172585;27;41686;-73
2021/04/29 03:21:24;;;;;;;12.60;11.30;;;;;;;13.06;71.14;97531.94;5172222;27;43283;-74
2021/04/29 03:23:51;;;;;;;12.17;11.07;;;;;;;13.08;70.92;97535.28;5155196;27;41463;-73
2021/04/29 03:26:19;;;;;;;14.80;13.37;;;;;;;13.08;71.85;97524.66;5173349;27;40677;-73
2021/04/29 03:28:46;;;;;;;14.50;13.00;;;;;;;13.06;72.29;97534.59;5170995;27;41814;-73
2021/04/29 03:31:13;;;;;;;14.40;13.00;;;;;;;13.02;72.29;97533.19;5171595;27;43421;-73
2021/04/29 03:33:50;;;;;;;14.17;12.80;;;;;;;13.02;71.87;97538.50;5173389;27;42887;-74
2021/04/29 03:36:17;;;;;;;13.17;11.87;;;;;;;13.01;72.41;97547.44;5171309;27;40746;-73
2021/04/29 03:38:52;;;;;;;19.07;17.07;;;;;;;13.01;72.28;97544.78;5172347;27;41767;-73
2021/04/29 03:41:20;;;;;;;15.20;13.70;;;;;;;13.02;71.90;97548.28;5155600;27;41774;-73
2021/04/29 03:43:47;;;;;;;15.83;14.40;;;;;;;13.05;71.99;97556.81;5173330;27;42138;-73
2021/04/29 03:46:14;;;;;;;14.87;13.40;;;;;;;13.04;71.78;97554.31;5174207;27;39809;-73
2021/04/29 03:48:41;;;;;;;18.90;17.00;;;;;;;13.05;71.91;97540.88;5172783;27;41585;-73
2021/04/29 03:51:08;;;;;;;15.93;14.33;;;;;;;13.05;72.10;97550.66;5173462;27;43449;-73
2021/04/29 03:53:35;;;;;;;15.67;14.27;;;;;;;13.05;72.52;97548.00;5172249;27;42262;-73
2021/04/29 03:56:03;;;;;;;17.30;15.53;;;;;;;13.00;72.68;97559.06;5173166;27;40726;-73
2021/04/29 03:58:31;;;;;;;16.73;15.13;;;;;;;12.97;72.81;97554.06;5173254;27;41621;-73
2021/04/29 04:00:58;;;;;;;15.80;14.20;;;;;;;13.04;72.60;97559.63;5170979;27;42755;-73
2021/04/29 04:03:25;;;;;;;16.00;14.53;;;;;;;13.05;72.90;97556.81;5172779;27;42651;-73
2021/04/29 04:05:52;;;;;;;13.63;12.33;;;;;;;13.05;73.11;97575.44;5171464;27;39649;-73
2021/04/29 04:08:19;;;;;;;16.23;14.73;;;;;;;13.06;73.08;97569.13;5171429;27;42378;-73
2021/04/29 04:10:56;;;;;;;15.17;13.63;;;;;;;13.07;72.74;97576.13;5171537;27;43273;-73
2021/04/29 04:13:23;;;;;;;12.67;11.50;;;;;;;13.10;72.67;97588.31;5172530;27;42346;-72
2021/04/29 04:15:51;;;;;;;16.67;15.03;;;;;;;13.13;73.06;97591.50;5171142;27;39633;-72
2021/04/29 04:18:18;;;;;;;16.47;14.70;;;;;;;13.12;73.24;97589.81;5171735;27;41007;-73
2021/04/29 04:20:46;;;;;;;17.63;15.97;;;;;;;13.12;73.55;97589.81;5154516;27;41655;-73
2021/04/29 04:23:13;;;;;;;16.07;14.57;;;;;;;13.11;73.70;97588.13;5170505;27;41798;-73
2021/04/29 04:25:40;;;;;;;13.73;12.53;;;;;;;13.11;73.66;97598.75;5172725;27;40668;-72
2021/04/29 04:28:08;;;;;;;16.27;14.83;;;;;;;13.08;74.05;97604.38;5171593;27;41581;-73
2021/04/29 04:30:35;;;;;;;15.87;13.57;;;;;;;13.06;74.14;97606.34;5154385;27;41784;-73
2021/04/29 04:33:04;;;;;;;16.17;14.57;;;;;;;13.03;74.18;97605.78;5172093;27;42971;-73
2021/04/29 04:35:31;;;;;;;15.83;14.20;;;;;;;13.02;74.45;97604.94;5171916;27;40120;-73
2021/04/29 04:37:58;;;;;;;14.93;13.53;;;;;;;13.03;74.41;97611.94;5170409;27;41513;-73
2021/04/29 04:40:25;;;;;;;13.73;12.47;;;;;;;13.04;73.87;97618.94;5171537;27;42717;-72
2021/04/29 04:42:52;;;;;;;14.07;12.77;;;;;;;13.04;73.79;97615.44;5170591;27;42872;-72
2021/04/29 04:45:19;;;;;;;13.87;12.47;;;;;;;13.06;73.85;97616.97;5170877;27;40010;-74
2021/04/29 04:47:46;;;;;;;13.90;12.50;;;;;;;13.07;73.67;97623.13;5170618;27;41573;-71
2021/04/29 04:50:15;;;;;;;12.37;11.33;;;;;;;13.04;73.91;97624.25;5170952;27;43485;-74
2021/04/29 04:52:42;;;;;;;11.77;10.57;;;;;;;13.04;73.94;97632.22;5170153;27;41908;-72
2021/04/29 04:55:09;;;;;;;11.00;10.10;;;;;;;13.02;73.89;97639.47;5174427;27;39848;-72
2021/04/29 04:57:36;;;;;;;12.83;11.53;;;;;;;12.98;74.26;97638.09;5173979;27;42350;-71
2021/04/29 05:00:05;;;;;;;12.27;11.17;;;;;;;12.95;73.77;97636.56;5173095;27;42661;-72
2021/04/29 05:02:34;;;;;;;12.20;11.00;;;;;;;13.00;74.03;97643.25;5153778;27;42182;-75
2021/04/29 05:05:01;;;;;;;12.07;10.97;;;;;;;13.08;73.75;97649.56;5174174;27;39740;-71
2021/04/29 05:07:31;;;;;;;12.73;11.43;;;;;;;13.15;73.63;97656.00;5171948;27;42330;-72
2021/04/29 05:09:58;;;;;;;11.37;10.27;;;;;;;13.22;73.53;97651.84;5149787;27;43108;-73
2021/04/29 05:12:25;;;;;;;11.83;10.73;;;;;;;13.27;73.51;97660.19;5150000;27;42124;-73
2021/04/29 05:14:52;;;;;;;10.83;9.73;;;;;;;13.32;73.17;97669.59;5150023;27;40642;-74
2021/04/29 05:17:19;;;;;;;10.43;9.43;;;;;;;13.39;72.87;97671.53;5153246;27;42410;-74
2021/04/29 05:19:46;;;;;;;11.00;10.07;;;;;;;13.45;72.41;97676.28;5153613;27;42406;-73
2021/04/29 05:22:15;;;;;;;11.40;9.37;;;;;;;13.49;72.30;97675.00;5169955;27;42859;-73
2021/04/29 05:24:43;;;;;;;10.63;9.60;;;;;;;13.58;72.23;97686.63;5170781;27;38566;-73
2021/04/29 05:27:10;;;;;;;10.53;9.43;;;;;;;13.62;71.61;97683.50;5170351;27;40570;-74
2021/04/29 05:29:38;;;;;;;8.70;7.80;;;;;;;13.69;71.54;97673.16;5169233;27;41777;-73
2021/04/29 05:32:06;;;;;;;8.60;7.67;;;;;;;13.79;71.07;97665.97;5170402;27;42731;-75
2021/04/29 05:34:33;;;;;;;9.10;8.30;;;;;;;13.86;70.57;97659.06;5152839;27;38971;-74
2021/04/29 05:37:00;;;;;;;9.20;8.27;;;;;;;13.98;69.98;97663.22;5152759;27;40885;-75
2021/04/29 05:39:27;;;;;;;8.70;7.83;;;;;;;14.08;69.68;97675.69;5153089;27;41914;-74
2021/04/29 05:41:55;;;;;;;9.13;7.27;;;;;;;14.21;68.94;97684.19;5169675;27;42682;-74
2021/04/29 05:44:23;;;;;;;8.67;7.70;;;;;;;14.36;68.45;97688.84;5170822;27;39825;-74
2021/04/29 05:46:50;;;;;;;8.67;7.63;;;;;;;14.45;68.12;97691.66;5170105;27;41818;-74
2021/04/29 05:49:17;;;;;;;8.17;7.00;;;;;;;14.44;68.14;97668.66;5149455;27;41775;-76
2021/04/29 05:51:44;;;;;;;8.50;7.70;;;;;;;14.69;67.83;97690.13;5148324;27;42649;-73
2021/04/29 05:54:11;;;;;;;8.03;7.23;;;;;;;14.76;67.12;97705.47;5150624;27;39884;-74
2021/04/29 05:56:38;;;;;;;9.33;7.10;;;;;;;14.81;67.13;97703.22;5164063;27;42341;-75
2021/04/29 05:59:06;;;;;;;8.37;7.57;;;;;;;14.86;66.11;97703.59;5132275;27;41888;-75
2021/04/29 06:01:33;;;;;;;8.10;7.30;;;;;;;14.90;65.78;97702.31;5130070;27;41193;-74
2021/04/29 06:04:01;;;;;;;8.23;7.43;;;;;;;15.00;65.54;97698.56;5168037;27;39583;-73
2021/04/29 06:06:28;;;;;;;8.97;7.70;;;;;;;15.08;65.75;97700.50;5167988;27;40851;-76
2021/04/29 06:08:55;;;;;;;8.23;7.43;;;;;;;15.16;65.09;97713.91;5151815;27;41730;-73
2021/04/29 06:11:22;;;;;;;8.37;7.53;;;;;;;15.23;65.19;97714.13;5170617;27;42309;-73
2021/04/29 06:13:49;;;;;;;8.50;7.70;;;;;;;15.30;64.49;97715.19;5169778;27;40902;-77
2021/04/29 06:16:17;;;;;;;8.27;7.40;;;;;;;15.29;64.56;97708.19;5171346;27;41563;-76
2021/04/29 06:18:44;;;;;;;8.53;7.60;;;;;;;15.37;64.46;97702.91;5168471;27;43148;-74
2021/04/29 06:21:12;;;;;;;8.30;7.50;;;;;;;15.29;64.15;97682.34;5152666;27;41160;-73
2021/04/29 06:23:39;;;;;;;7.47;6.77;;;;;;;15.53;63.78;97696.88;5168970;27;40398;-74
2021/04/29 06:26:06;;;;;;;6.83;6.23;;;;;;;15.69;63.05;97718.41;5173212;27;40986;-74
2021/04/29 06:28:33;;;;;;;8.13;7.43;;;;;;;15.84;62.41;97719.47;5172788;27;42771;-75
2021/04/29 06:31:01;;;;;;;8.10;7.30;;;;;;;15.95;61.88;97732.56;5174340;27;42012;-76
2021/04/29 06:33:29;;;;;;;8.97;6.27;;;;;;;16.05;61.09;97733.31;5173640;27;38579;-75
2021/04/29 06:35:57;;;;;;;7.60;6.77;;;;;;;16.14;60.86;97735.03;5174679;27;41835;-76
2021/04/29 06:38:25;;;;;;;6.50;6.00;;;;;;;16.16;61.00;97722.38;5173939;27;42777;-74
2021/04/29 06:40:52;;;;;;;6.73;6.10;;;;;;;16.20;60.20;97732.72;5172749;27;42896;-73
2021/04/29 06:43:20;;;;;;;7.07;6.37;;;;;;;16.14;60.58;97736.88;5173070;27;40200;-75
2021/04/29 06:45:48;;;;;;;7.67;6.57;;;;;;;16.02;60.85;97738.97;5155842;27;41642;-75
2021/04/29 06:48:15;;;;;;;6.37;5.77;;;;;;;16.15;60.38;97739.38;5155278;27;42824;-76
2021/04/29 06:50:43;;;;;;;7.87;6.37;;;;;;;16.35;60.04;97728.47;5155580;27;41207;-76
2021/04/29 06:53:11;;;;;;;5.97;5.20;;;;;;;16.76;59.84;97733.03;5172719;27;39495;-75
2021/04/29 06:55:38;;;;;;;7.00;6.33;;;;;;;17.19;58.38;97741.81;5172770;27;41611;-73
2021/04/29 06:58:05;;;;;;;7.57;4.87;;;;;;;17.40;57.71;97741.34;5174720;27;42679;-73
2021/04/29 07:00:34;;;;;;;5.70;5.20;;;;;;;17.44;57.13;97748.88;5171573;27;42168;-76
2021/04/29 07:03:01;;;;;;;4.47;4.07;;;;;;;17.55;57.12;97751.25;5173320;27;40250;-76
2021/04/29 07:05:28;;;;;;;7.90;4.73;;;;;;;17.82;54.95;97759.97;5155263;27;40954;-76
2021/04/29 07:07:56;;;;;;;5.13;4.63;;;;;;;18.15;54.95;97756.25;5169939;27;43457;-73
2021/04/29 07:10:24;;;;;;;5.80;5.20;;;;;;;18.51;54.15;97763.88;5171528;27;41731;-75
2021/04/29 07:12:52;;;;;;;5.10;4.47;;;;;;;19.03;52.31;97774.94;5154774;27;39257;-74
2021/04/29 07:15:19;;;;;;;5.10;4.60;;;;;;;18.94;51.94;97776.81;5154173;27;40885;-74
2021/04/29 07:17:47;;;;;;;4.30;3.90;;;;;;;19.11;51.13;97790.16;5154715;27;42013;-75
2021/04/29 07:20:15;;;;;;;3.93;3.50;;;;;;;19.34;50.86;97799.06;5155998;27;42327;-76
2021/04/29 07:22:42;;;;;;;3.77;3.03;;;;;;;19.20;50.89;97781.03;5169522;27;39390;-73
2021/04/29 07:25:11;;;;;;;3.03;2.83;;;;;;;19.12;49.93;97806.09;5172376;27;42143;-75
2021/04/29 07:27:38;;;;;;;3.53;2.70;;;;;;;19.03;50.41;97801.78;5170347;27;43356;-77
2021/04/29 07:30:07;;;;;;;3.33;3.00;;;;;;;18.96;49.62;97801.63;5171037;27;41476;-73
2021/04/29 07:32:34;;;;;;;3.57;3.27;;;;;;;18.91;49.36;97805.84;5177405;27;40027;-76
2021/04/29 07:35:03;;;;;;;3.20;2.90;;;;;;;18.96;49.66;97806.97;5149137;27;42874;-74
2021/04/29 07:37:30;;;;;;;3.30;3.00;;;;;;;18.90;49.65;97809.53;5197922;27;43320;-77
2021/04/29 07:39:57;;;;;;;4.70;3.80;;;;;;;18.76;49.70;97778.06;5173557;27;42252;-76
2021/04/29 07:42:26;;;;;;;4.27;3.03;;;;;;;18.67;48.59;97777.25;5155039;27;38669;-75
2021/04/29 07:44:53;;;;;;;3.23;3.00;;;;;;;18.77;49.31;97807.41;5155044;27;41143;-76
2021/04/29 07:47:20;;;;;;;3.03;2.70;;;;;;;18.64;49.42;97809.78;5155595;27;41613;-76
2021/04/29 07:49:47;;;;;;;4.50;3.20;;;;;;;18.53;49.11;97812.81;5171768;27;42757;-76
2021/04/29 07:52:14;;;;;;;2.80;2.60;;;;;;;18.47;49.70;97800.91;5172996;27;39099;-74
2021/04/29 07:54:42;;;;;;;3.10;2.80;;;;;;;18.74;49.80;97812.28;5172586;27;42507;-75
2021/04/29 07:57:09;;;;;;;3.07;2.87;;;;;;;18.78;49.02;97803.72;5190241;27;42693;-76
2021/04/29 07:59:37;;;;;;;2.90;2.70;;;;;;;18.79;49.55;97786.59;5171218;27;42942;-74
2021/04/29 08:02:04;;;;;;;3.50;2.80;;;;;;;18.91;48.89;97801.31;5172876;27;39099;-75
2021/04/29 08:04:32;;;;;;;3.00;2.80;;;;;;;18.86;48.92;97816.25;5173235;27;42066;-73
2021/04/29 08:06:59;;;;;;;3.20;3.00;;;;;;;18.74;49.31;97804.22;5171143;27;42556;-73
2021/04/29 08:09:26;;;;;;;3.63;3.00;;;;;;;18.72;49.35;97819.66;5172030;27;41898;-77
2021/04/29 08:11:54;;;;;;;5.10;3.20;;;;;;;19.06;48.27;97801.41;5169805;27;39496;-78
2021/04/29 08:14:21;;;;;;;3.60;2.77;;;;;;;19.91;47.29;97801.38;5171410;27;41780;-73
2021/04/29 08:16:50;;;;;;;3.60;2.30;;;;;;;20.37;45.12;97846.06;5154016;27;43111;-74
2021/04/29 08:19:17;;;;;;;3.87;2.37;;;;;;;20.83;43.42;97851.31;5170620;27;42375;-77
2021/04/29 08:21:45;;;;;;;2.80;2.60;;;;;;;21.84;42.50;97843.28;5151390;27;40291;-75
2021/04/29 08:24:12;;;;;;;2.27;2.07;;;;;;;22.04;40.05;97837.28;5149912;27;41566;-77
2021/04/29 08:26:40;;;;;;;2.83;2.20;;;;;;;23.16;38.48;97879.47;5154853;27;43402;-75
2021/04/29 08:29:07;;;;;;;2.40;2.20;;;;;;;23.26;38.31;97876.41;5172643;27;42550;-74
2021/04/29 08:31:35;;;;;;;2.57;2.37;;;;;;;22.85;38.73;97885.31;5154113;27;39259;-77
2021/04/29 08:34:03;;;;;;;3.10;2.20;;;;;;;22.22;39.64;97880.81;5172324;27;41604;-74
2021/04/29 08:36:30;;;;;;;3.83;2.17;;;;;;;21.78;40.65;97873.69;5171935;27;44272;-74
2021/04/29 08:38:58;;;;;;;3.43;2.03;;;;;;;21.50;41.45;97865.50;5171555;27;42003;-75
2021/04/29 08:41:25;;;;;;;2.67;2.43;;;;;;;21.03;42.29;97852.41;5171725;27;38790;-77
2021/04/29 08:43:53;;;;;;;3.23;2.73;;;;;;;20.92;42.60;97870.88;5188415;27;40921;-75
2021/04/29 08:46:20;;;;;;;4.20;2.60;;;;;;;20.81;42.42;97866.81;5172220;27;41676;-75
2021/04/29 08:48:52;;;;;;;3.70;2.50;;;;;;;21.57;41.46;97862.88;5170346;27;42212;-75
2021/04/29 08:51:21;;;;;;;3.33;2.70;;;;;;;22.33;40.74;97877.59;5154831;27;39523;-75
2021/04/29 08:53:49;;;;;;;2.60;2.30;;;;;;;22.53;39.90;97846.19;5171944;27;42351;-75
2021/04/29 08:56:22;;;;;;;3.70;3.30;;;;;;;22.81;38.58;97891.28;5154258;27;42793;-76
2021/04/29 08:58:50;;;;;;;2.77;2.23;;;;;;;22.69;38.77;97887.44;5154609;27;42220;-74
2021/04/29 09:01:17;;;;;;;2.70;2.47;;;;;;;22.40;38.91;97881.16;5154336;27;38804;-74
2021/04/29 09:03:45;;;;;;;3.50;3.17;;;;;;;22.17;38.16;97888.63;5153068;27;40634;-75
2021/04/29 09:06:12;;;;;;;3.03;2.83;;;;;;;21.82;39.74;97884.94;5170290;27;42785;-75
2021/04/29 09:08:41;;;;;;;3.17;2.70;;;;;;;21.56;40.72;97888.16;5170835;27;42144;-75
2021/04/29 09:11:12;;;;;;;3.77;2.80;;;;;;;21.24;40.42;97884.03;5171432;27;40539;-76
2021/04/29 09:13:40;;;;;;;3.00;2.80;;;;;;;21.42;40.58;97894.38;5170400;27;40929;-76
2021/04/29 09:16:09;;;;;;;4.03;2.67;;;;;;;22.06;39.25;97881.91;5170342;27;43469;-80
2021/04/29 09:18:40;;;;;;;4.90;2.80;;;;;;;23.75;37.30;97895.13;5171870;27;42883;-73
2021/04/29 09:21:11;;;;;;;5.10;3.23;;;;;;;25.64;36.04;97891.00;5171674;27;40035;-74
2021/04/29 09:23:42;;;;;;;3.13;2.83;;;;;;;27.43;31.62;97930.25;5151864;27;41469;-74
2021/04/29 09:26:12;;;;;;;3.83;2.73;;;;;;;28.14;29.45;97954.13;5170591;27;42024;-74
2021/04/29 09:28:42;;;;;;;3.07;2.77;;;;;;;29.10;28.68;97935.91;5169562;27;42267;-74
2021/04/29 09:31:12;;;;;;;4.20;3.00;;;;;;;30.30;28.27;97936.91;5170203;27;39111;-73
2021/04/29 09:33:41;;;;;;;3.10;2.90;;;;;;;30.14;26.18;97965.03;5171210;27;41919;-73
2021/04/29 09:36:20;;;;;;;4.10;2.93;;;;;;;28.76;26.95;97968.31;5170956;27;42630;-73
2021/04/29 09:38:53;;;;;;;2.90;2.60;;;;;;;28.00;28.23;97958.06;5153092;27;41247;-73
2021/04/29 09:41:25;;;;;;;6.37;3.37;;;;;;;28.45;27.36;97965.84;5169536;27;40367;-73
2021/04/29 09:43:55;;;;;;;3.83;3.50;;;;;;;29.67;25.34;97976.00;5170739;27;41508;-73
2021/04/29 09:46:23;;;;;;;3.77;3.47;;;;;;;30.41;24.28;97972.66;5169881;27;43538;-73
2021/04/29 09:48:52;;;;;;;4.97;3.40;;;;;;;30.21;24.40;97971.16;5170862;27;41501;-73
2021/04/29 09:51:20;;;;;;;3.40;3.10;;;;;;;31.06;24.73;97951.13;5170528;27;39868;-75
2021/04/29 09:53:52;;;;;;;4.03;3.07;;;;;;;31.23;23.29;97959.34;5152762;27;41630;-74
2021/04/29 09:56:20;;;;;;;3.20;2.90;;;;;;;31.42;23.67;97971.66;5149655;27;43465;-73
2021/04/29 09:58:49;;;;;;;4.10;3.13;;;;;;;30.89;23.47;97962.06;5131330;27;41117;-75
2021/04/29 10:01:17;;;;;;;3.40;3.10;;;;;;;30.67;23.85;97966.56;5156337;27;39565;-73
2021/04/29 10:03:45;;;;;;;3.30;3.00;;;;;;;30.16;23.97;97941.03;5169570;27;41498;-74
2021/04/29 10:06:15;;;;;;;3.37;3.07;;;;;;;29.47;25.25;97940.09;5169678;27;43486;-73
2021/04/29 10:08:42;;;;;;;3.30;3.00;;;;;;;28.78;25.29;97944.44;5168266;27;44186;-74
2021/04/29 10:11:12;;;;;;;2.57;2.37;;;;;;;28.85;27.21;97934.25;5170931;27;20277;-73
2021/04/29 10:13:43;;;;;;;4.23;3.70;;;;;;;28.52;25.99;97887.59;5170784;27;41725;-74
2021/04/29 10:16:11;;;;;;;3.60;2.73;;;;;;;29.01;25.30;97951.81;5171151;27;43220;-74
2021/04/29 10:18:39;;;;;;;5.23;3.40;;;;;;;28.67;24.95;97939.75;5169025;27;42478;-74
2021/04/29 10:21:07;;;;;;;3.50;3.17;;;;;;;28.35;25.56;97946.53;5169644;27;39164;-73
2021/04/29 10:23:34;;;;;;;4.63;3.60;;;;;;;28.45;25.91;97938.63;5169730;27;41735;-75
2021/04/29 10:26:01;;;;;;;4.30;3.00;;;;;;;28.61;25.80;97940.69;5152546;27;41622;-74
2021/04/29 10:28:32;;;;;;;4.23;2.97;;;;;;;28.43;25.94;97930.72;5168455;27;42858;-74
2021/04/29 10:30:59;;;;;;;4.27;3.87;;;;;;;28.22;26.23;97926.59;5204637;27;40790;-74
2021/04/29 10:33:26;;;;;;;3.50;3.20;;;;;;;28.19;26.27;97918.03;5169929;27;42185;-74
2021/04/29 10:35:59;;;;;;;4.20;3.60;;;;;;;28.08;26.50;97913.34;5169303;27;42579;-74
2021/04/29 10:38:30;;;;;;;5.30;4.07;;;;;;;27.89;26.12;97912.56;5169517;27;42126;-73
2021/04/29 10:40:58;;;;;;;5.43;3.80;;;;;;;28.38;26.11;97899.78;5150203;27;40600;-75
2021/04/29 10:43:34;;;;;;;4.00;3.27;;;;;;;28.65;25.43;97908.34;5148315;27;42303;-76
2021/04/29 10:46:04;;;;;;;3.97;3.43;;;;;;;28.35;25.82;97916.56;5132922;27;43104;-75
2021/04/29 10:48:33;;;;;;;4.17;3.70;;;;;;;27.61;26.55;97898.69;5132030;27;41654;-78
2021/04/29 10:51:08;;;;;;;5.23;3.83;;;;;;;26.65;28.31;97899.19;5150544;27;40651;-75
2021/04/29 10:53:36;;;;;;;5.57;3.70;;;;;;;25.46;29.42;97869.16;5149768;27;41644;-79
2021/04/29 10:56:10;;;;;;;5.10;4.60;;;;;;;24.58;30.34;97885.75;5169523;27;43417;-74
2021/04/29 10:58:38;;;;;;;5.87;4.27;;;;;;;23.84;32.74;97855.25;5170419;27;43027;-78
2021/04/29 11:01:07;;;;;;;5.43;3.70;;;;;;;23.61;33.74;97855.59;5169806;27;39842;-76
2021/04/29 11:03:37;;;;;;;5.80;4.57;;;;;;;23.68;33.79;97856.44;5169776;27;40686;-76
2021/04/29 11:06:16;;;;;;;6.97;5.00;;;;;;;23.51;33.49;97866.78;5170338;27;41917;-78
2021/04/29 11:08:48;;;;;;;5.97;5.40;;;;;;;23.13;34.09;97873.63;5168860;27;41339;-76
2021/04/29 11:11:23;;;;;;;5.50;4.40;;;;;;;22.67;34.86;97878.69;5171058;27;39907;-79
2021/04/29 11:14:02;;;;;;;4.57;4.17;;;;;;;22.18;34.79;97866.03;5155993;27;40640;-80
2021/04/29 11:16:43;;;;;;;5.37;4.33;;;;;;;21.85;36.01;97860.28;5173589;27;42144;-78
2021/04/29 11:19:38;;;;;;;7.00;5.80;;;;;;;21.49;37.59;97854.91;5173387;27;41871;-78
2021/04/29 11:22:07;;;;;;;5.83;5.23;;;;;;;21.09;37.52;97859.75;5155160;27;40211;-79
2021/04/29 11:24:37;;;;;;;6.17;5.57;;;;;;;20.75;37.32;97854.09;5174006;27;41487;-76
2021/04/29 11:27:04;;;;;;;7.37;5.60;;;;;;;20.66;37.74;97850.63;5173520;27;42638;-78
2021/04/29 11:29:40;;;;;;;5.00;4.50;;;;;;;20.87;38.79;97839.16;5155425;27;41438;-79
2021/04/29 11:32:07;;;;;;;5.77;5.20;;;;;;;21.03;38.61;97835.44;5173862;27;39980;-79